Time;durP1;ratioP1;P1;durP2;ratioP2;P2;SDS_P1;SDS_P2;PMS_P1;PMS_P2;Temp;Humidity;BMP_temperature;BMP_pressure;BME280_temperature;BME280_humidity;BME280_pressure;Samples;Min_cycle;Max_cycle;Signal;HPM_P1;HPM_P2
2023/05/17 00:00:20;;;;;;;5.47;4.73;;;;;;;7.23;93.20;96886.81;6199120;28;20283;-92
2023/05/17 00:03:23;;;;;;;4.73;4.23;;;;;;;9.78;92.97;97209.81;6216270;28;20232;-91
2023/05/17 00:06:25;;;;;;;5.10;4.60;;;;;;;6.92;93.26;96825.41;6215798;28;20234;-92
2023/05/17 00:09:28;;;;;;;5.53;4.33;;;;;;;8.40;93.25;97044.31;6194381;28;20233;-92
2023/05/17 00:12:30;;;;;;;4.53;4.13;;;;;;;7.14;92.95;96878.47;6207427;28;20246;-93
2023/05/17 00:15:33;;;;;;;6.93;4.53;;;;;;;8.59;93.67;97084.69;6201444;28;20227;-92
2023/05/17 00:18:36;;;;;;;5.17;4.67;;;;;;;8.89;94.11;97159.47;6205959;28;20333;-92
2023/05/17 00:21:39;;;;;;;5.33;4.83;;;;;;;9.68;93.91;97270.88;6200038;28;20237;-91
2023/05/17 00:24:41;;;;;;;5.07;4.47;;;;;;;8.09;93.06;97027.91;6194692;28;20238;-92
2023/05/17 00:27:44;;;;;;;4.93;4.10;;;;;;;7.28;93.27;96939.88;6209797;28;20246;-92
2023/05/17 00:30:47;;;;;;;4.43;4.00;;;;;;;6.82;93.95;96867.59;6199444;28;20234;-92
2023/05/17 00:33:50;;;;;;;4.87;4.33;;;;;;;9.77;94.30;97329.78;6210311;28;20233;-92
2023/05/17 00:36:53;;;;;;;4.37;3.97;;;;;;;7.87;94.51;97083.50;6201013;28;20239;-93
2023/05/17 00:39:55;;;;;;;4.07;3.67;;;;;;;6.83;93.02;96897.50;6216324;28;20228;-92
2023/05/17 00:42:58;;;;;;;5.20;4.03;;;;;;;9.06;94.06;97217.88;6193238;28;20230;-92
2023/05/17 00:46:00;;;;;;;4.50;3.70;;;;;;;6.37;93.67;96782.88;6194658;28;20265;-93
2023/05/17 00:49:03;;;;;;;3.93;3.60;;;;;;;8.11;93.19;97123.97;6208422;28;20233;-92
2023/05/17 00:52:07;;;;;;;3.23;2.93;;;;;;;8.85;93.62;97186.75;6188819;28;20221;-92
2023/05/17 00:55:09;;;;;;;3.93;3.40;;;;;;;8.89;94.71;97207.28;6202974;28;20228;-91
2023/05/17 00:58:13;;;;;;;4.17;3.77;;;;;;;6.47;94.45;96850.00;6224378;28;20813;-92
2023/05/17 01:01:16;;;;;;;3.30;2.97;;;;;;;6.78;95.05;96947.69;6213650;28;20323;-92
2023/05/17 01:04:19;;;;;;;3.23;2.93;;;;;;;8.36;95.12;97146.66;6218265;28;20235;-91
2023/05/17 01:07:21;;;;;;;3.50;3.13;;;;;;;9.25;94.49;97287.53;6227308;28;20236;-92
2023/05/17 01:10:35;;;;;;;2.90;2.70;;;;;;;8.27;94.61;97148.91;6234300;28;20231;-91
2023/05/17 01:14:11;;;;;;;3.67;2.77;;;;;;;9.63;94.79;97350.59;6203274;28;20225;-91
2023/05/17 01:17:31;;;;;;;3.50;2.30;;;;;;;7.94;93.94;97081.50;6229543;28;20224;-93
2023/05/17 01:20:36;;;;;;;2.83;2.53;;;;;;;9.61;94.53;97355.38;6240709;28;20252;-92
2023/05/17 01:24:02;;;;;;;3.40;2.57;;;;;;;6.15;94.80;96827.69;6221548;28;20229;-92
2023/05/17 01:27:06;;;;;;;3.63;2.40;;;;;;;8.39;95.40;97194.81;6235465;28;20238;-93
2023/05/17 01:30:12;;;;;;;3.10;2.80;;;;;;;7.93;94.87;97125.00;6239818;28;20276;-93
2023/05/17 01:33:15;;;;;;;2.60;2.40;;;;;;;7.18;94.47;97016.53;6219492;28;20233;-93
2023/05/17 01:36:19;;;;;;;2.47;2.27;;;;;;;6.17;94.14;96860.78;6233796;28;20801;-93
2023/05/17 01:39:21;;;;;;;4.27;2.30;;;;;;;7.78;93.88;97105.34;6235064;28;20237;-92
2023/05/17 01:42:32;;;;;;;2.20;2.00;;;;;;;9.36;94.94;97384.19;6233958;28;20229;-92
2023/05/17 01:45:49;;;;;;;2.83;2.57;;;;;;;7.38;95.44;97098.22;6228221;28;20222;-91
2023/05/17 01:49:03;;;;;;;4.27;2.57;;;;;;;7.20;95.76;97100.03;6238642;28;20241;-92
2023/05/17 01:52:33;;;;;;;2.67;2.13;;;;;;;7.23;95.60;97080.19;6211059;28;20232;-93
2023/05/17 01:55:43;;;;;;;2.13;1.93;;;;;;;9.31;95.93;97403.53;6226764;28;20231;-92
2023/05/17 01:58:47;;;;;;;2.63;2.43;;;;;;;6.01;94.65;96934.72;6211848;28;20241;-92
2023/05/17 02:02:05;;;;;;;2.67;2.00;;;;;;;8.08;95.99;97209.34;6226000;28;20247;-92
2023/05/17 02:05:07;;;;;;;3.47;2.20;;;;;;;8.15;94.56;97220.63;6237555;28;20223;-92
2023/05/17 02:08:13;;;;;;;2.40;1.97;;;;;;;7.00;94.19;97083.72;6230148;28;20236;-92
2023/05/17 02:11:16;;;;;;;2.30;1.90;;;;;;;6.62;93.60;97032.09;6227300;28;20263;-91
2023/05/17 02:14:19;;;;;;;2.50;2.30;;;;;;;8.58;94.16;97324.69;6232153;28;20231;-92
2023/05/17 02:17:22;;;;;;;2.03;1.83;;;;;;;6.02;93.93;96920.50;6223852;28;20234;-92
2023/05/17 02:20:24;;;;;;;3.63;1.93;;;;;;;7.34;94.89;97161.50;6237832;28;20223;-92
2023/05/17 02:23:27;;;;;;;2.57;1.70;;;;;;;7.40;95.03;97216.22;6239647;28;20664;-92
2023/05/17 02:26:30;;;;;;;1.97;1.77;;;;;;;5.95;95.38;96957.59;6237998;28;20317;-93
2023/05/17 02:29:34;;;;;;;2.23;1.80;;;;;;;7.83;95.31;97222.09;6244275;28;20319;-92
2023/05/17 02:32:37;;;;;;;3.47;2.03;;;;;;;6.86;94.85;97080.50;6239251;28;20301;-92
2023/05/17 02:35:40;;;;;;;3.37;2.17;;;;;;;6.12;94.52;96933.94;6211619;28;20307;-92
2023/05/17 02:38:43;;;;;;;2.40;2.20;;;;;;;7.27;93.53;97118.44;6228696;28;20228;-91
2023/05/17 02:41:46;;;;;;;1.93;1.77;;;;;;;5.95;92.20;96894.16;6223685;28;20643;-91
2023/05/17 02:44:53;;;;;;;2.13;1.90;;;;;;;7.28;93.11;97191.56;6217001;28;20237;-91
2023/05/17 02:47:57;;;;;;;3.10;2.03;;;;;;;8.35;93.28;97301.66;6232174;28;20243;-92
2023/05/17 02:50:59;;;;;;;2.10;1.90;;;;;;;7.99;93.37;97285.03;6226791;28;20774;-92
2023/05/17 02:54:02;;;;;;;1.87;1.77;;;;;;;7.83;93.67;97259.22;6230659;28;20242;-92
2023/05/17 02:57:05;;;;;;;1.90;1.80;;;;;;;7.74;93.41;97256.97;6234321;28;20243;-91
2023/05/17 03:00:08;;;;;;;2.20;2.07;;;;;;;9.17;93.51;97432.28;6210147;28;20218;-92
2023/05/17 03:03:11;;;;;;;2.20;2.00;;;;;;;6.32;93.32;97015.56;6212410;28;20766;-91
2023/05/17 03:06:13;;;;;;;2.77;2.57;;;;;;;7.86;92.74;97256.13;6207812;28;20210;-91
2023/05/17 03:09:16;;;;;;;2.70;2.37;;;;;;;6.64;92.34;97106.75;6223458;28;20641;-92
2023/05/17 03:12:22;;;;;;;3.00;2.80;;;;;;;7.17;93.31;97155.31;6212898;28;20774;-92
2023/05/17 03:15:28;;;;;;;6.60;2.83;;;;;;;5.74;93.33;96952.84;6227681;28;20244;-92
2023/05/17 03:18:31;;;;;;;4.10;3.00;;;;;;;7.58;94.31;97278.88;6205794;28;20231;-91
2023/05/17 03:21:34;;;;;;;3.60;2.50;;;;;;;7.63;94.40;97256.97;6210399;28;20715;-91
2023/05/17 03:24:37;;;;;;;2.80;2.60;;;;;;;5.76;93.62;96985.13;6208367;28;20234;-92
2023/05/17 03:27:39;;;;;;;2.60;2.40;;;;;;;5.89;93.30;97009.53;6205167;28;20342;-92
2023/05/17 03:30:42;;;;;;;3.33;2.80;;;;;;;7.00;94.10;97205.53;6204261;28;20416;-91
2023/05/17 03:33:46;;;;;;;2.43;2.20;;;;;;;6.90;93.59;97192.88;6230077;28;20235;-92
2023/05/17 03:36:49;;;;;;;3.10;2.60;;;;;;;6.22;93.84;97153.66;6209189;28;20239;-91
2023/05/17 03:39:51;;;;;;;2.47;2.23;;;;;;;5.81;93.74;97031.00;6207693;28;20608;-92
2023/05/17 03:42:54;;;;;;;3.57;2.23;;;;;;;6.81;94.27;97233.16;6210555;28;20224;-91
2023/05/17 03:45:57;;;;;;;3.23;2.93;;;;;;;6.72;94.33;97207.00;6211949;28;20232;-91
2023/05/17 03:49:00;;;;;;;2.97;2.70;;;;;;;6.01;94.06;97099.47;6204454;28;20781;-91
2023/05/17 03:52:05;;;;;;;3.73;2.67;;;;;;;8.36;93.91;97471.28;6230213;28;20232;-91
2023/05/17 03:55:08;;;;;;;2.73;2.50;;;;;;;5.37;94.02;97019.88;6219158;28;20241;-92
2023/05/17 03:58:11;;;;;;;2.33;2.13;;;;;;;5.18;93.90;97044.72;6229238;28;20242;-92
2023/05/17 04:01:16;;;;;;;2.60;2.23;;;;;;;7.43;93.43;97373.94;6211449;28;20737;-92
2023/05/17 04:04:19;;;;;;;2.83;2.37;;;;;;;7.61;93.19;97424.22;6231227;28;20231;-92
2023/05/17 04:07:22;;;;;;;3.60;2.30;;;;;;;8.31;93.62;97563.25;6237623;28;20754;-92
2023/05/17 04:10:26;;;;;;;2.90;2.10;;;;;;;6.66;93.42;97284.69;6218622;28;20357;-92
2023/05/17 04:13:29;;;;;;;2.20;2.00;;;;;;;5.88;93.16;97163.88;6236670;28;20290;-93
2023/05/17 04:16:36;;;;;;;2.73;2.13;;;;;;;6.68;93.76;97306.41;6229616;28;20235;-92
2023/05/17 04:19:39;;;;;;;3.63;2.27;;;;;;;5.52;94.09;97111.91;6214728;28;20243;-91
2023/05/17 04:22:42;;;;;;;3.77;2.20;;;;;;;7.05;93.48;97363.75;6236827;28;20220;-92
2023/05/17 04:25:46;;;;;;;2.13;1.93;;;;;;;5.87;93.76;97180.75;6237742;28;20310;-92
2023/05/17 04:28:49;;;;;;;2.47;2.00;;;;;;;8.32;94.04;97596.69;6222151;28;20304;-92
2023/05/17 04:31:52;;;;;;;2.20;2.00;;;;;;;6.10;94.29;97267.31;6206349;28;20223;-92
2023/05/17 04:34:55;;;;;;;2.50;2.10;;;;;;;7.44;94.49;97478.94;6212551;28;20227;-91
2023/05/17 04:37:58;;;;;;;3.27;2.40;;;;;;;5.02;92.44;97082.25;6228429;28;20234;-92
2023/05/17 04:41:05;;;;;;;2.00;1.80;;;;;;;4.72;93.13;97058.44;6231613;28;20800;-92
2023/05/17 04:44:10;;;;;;;2.40;1.80;;;;;;;6.57;92.80;97354.03;6230780;28;20231;-91
2023/05/17 04:47:13;;;;;;;2.13;1.97;;;;;;;7.14;93.12;97466.50;6208945;28;20317;-91
2023/05/17 04:50:16;;;;;;;3.47;2.33;;;;;;;4.76;92.71;97097.34;6226154;28;20239;-92
2023/05/17 04:53:19;;;;;;;2.20;2.00;;;;;;;6.76;93.77;97424.44;6213185;28;20302;-91
2023/05/17 04:56:25;;;;;;;2.80;2.20;;;;;;;5.21;92.85;97191.31;6218504;28;20474;-91
2023/05/17 04:59:29;;;;;;;2.23;2.00;;;;;;;7.45;93.27;97557.41;6210176;28;20239;-91
2023/05/17 05:02:32;;;;;;;4.23;2.37;;;;;;;5.30;92.77;97262.09;6206806;28;20279;-91
2023/05/17 05:05:36;;;;;;;3.57;2.80;;;;;;;5.67;92.13;97272.72;6217770;28;20239;-92
2023/05/17 05:08:39;;;;;;;3.70;2.90;;;;;;;4.34;93.03;97128.00;6234504;28;20236;-92
2023/05/17 05:11:45;;;;;;;5.00;2.30;;;;;;;5.82;92.91;97318.09;6217443;28;20236;-92
2023/05/17 05:14:48;;;;;;;4.63;2.33;;;;;;;7.11;91.94;97514.63;6213913;28;20240;-92
2023/05/17 05:17:51;;;;;;;3.57;3.10;;;;;;;5.46;92.48;97267.84;6236832;28;20240;-93
2023/05/17 05:20:55;;;;;;;4.67;2.97;;;;;;;4.64;92.19;97141.31;6215145;28;20242;-91
2023/05/17 05:23:58;;;;;;;3.07;2.40;;;;;;;5.14;92.56;97237.06;6229563;28;20298;-92
2023/05/17 05:27:01;;;;;;;4.87;2.33;;;;;;;5.74;93.16;97351.91;6198698;28;20220;-91
2023/05/17 05:30:09;;;;;;;4.40;2.60;;;;;;;4.36;92.83;97187.38;6211321;28;20308;-91
2023/05/17 05:33:11;;;;;;;4.27;2.00;;;;;;;5.61;91.38;97358.94;6206103;28;20710;-92
2023/05/17 05:36:14;;;;;;;4.23;2.50;;;;;;;5.90;91.38;97428.78;6208688;28;20204;-91
2023/05/17 05:39:16;;;;;;;4.70;2.43;;;;;;;6.27;92.04;97484.44;6204823;28;20303;-90
2023/05/17 05:42:19;;;;;;;3.70;2.33;;;;;;;7.57;93.40;97684.66;6214223;28;20219;-91
2023/05/17 05:45:21;;;;;;;2.63;2.33;;;;;;;5.00;92.41;97337.72;6192186;28;20240;-91
2023/05/17 05:48:26;;;;;;;4.10;2.97;;;;;;;5.78;94.00;97438.47;6178498;28;20582;-91
2023/05/17 05:51:30;;;;;;;3.27;2.60;;;;;;;5.25;92.48;97341.19;6182616;28;20302;-91
2023/05/17 05:54:32;;;;;;;3.40;2.13;;;;;;;6.09;93.19;97511.66;6197818;28;20317;-90
2023/05/17 05:57:35;;;;;;;3.20;2.30;;;;;;;4.74;93.53;97309.69;6225265;28;20248;-91
2023/05/17 06:00:39;;;;;;;5.70;2.13;;;;;;;6.32;93.17;97515.53;6235047;28;20311;-92
2023/05/17 06:03:46;;;;;;;3.53;1.90;;;;;;;6.89;91.50;97591.06;6208439;28;20235;-91
2023/05/17 06:06:49;;;;;;;3.90;2.57;;;;;;;4.10;92.65;97166.50;6239118;28;20235;-91
2023/05/17 06:09:52;;;;;;;4.03;2.40;;;;;;;4.91;92.28;97316.84;6220762;28;20594;-91
2023/05/17 06:12:56;;;;;;;4.90;2.47;;;;;;;4.65;92.20;97233.44;6216209;28;20241;-91
2023/05/17 06:15:58;;;;;;;3.73;2.40;;;;;;;5.34;93.07;97397.19;6227236;28;20312;-90
2023/05/17 06:19:01;;;;;;;3.70;2.80;;;;;;;4.83;93.17;97330.34;6235700;28;20238;-92
2023/05/17 06:22:03;;;;;;;5.97;2.97;;;;;;;6.26;92.71;97546.31;6223375;28;20300;-91
2023/05/17 06:25:06;;;;;;;3.60;2.57;;;;;;;6.25;93.37;97541.22;6225057;28;20374;-91
2023/05/17 06:28:09;;;;;;;5.43;2.80;;;;;;;6.27;92.81;97523.31;6203867;28;20235;-91
2023/05/17 06:31:13;;;;;;;4.37;2.70;;;;;;;4.97;92.53;97320.47;6219649;28;20284;-91
2023/05/17 06:34:15;;;;;;;5.37;2.93;;;;;;;6.88;92.69;97615.94;6226576;28;20242;-91
2023/05/17 06:37:18;;;;;;;7.50;3.30;;;;;;;5.31;93.34;97427.47;6217339;28;20604;-91
2023/05/17 06:40:21;;;;;;;5.73;3.20;;;;;;;5.57;93.78;97462.66;6223404;28;20641;-92
2023/05/17 06:43:23;;;;;;;6.13;3.43;;;;;;;7.41;93.96;97739.91;6223761;28;20262;-91
2023/05/17 06:46:26;;;;;;;4.43;3.33;;;;;;;6.49;93.12;97627.69;6233686;28;20311;-92
2023/05/17 06:49:28;;;;;;;4.53;3.20;;;;;;;6.80;93.08;97645.34;6231497;28;20342;-92
2023/05/17 06:52:31;;;;;;;5.87;3.17;;;;;;;6.70;92.97;97640.56;6226186;28;20230;-90
2023/05/17 06:55:33;;;;;;;5.10;3.13;;;;;;;4.70;91.94;97372.63;6235721;28;20325;-91
2023/05/17 06:58:36;;;;;;;5.80;3.53;;;;;;;6.57;92.76;97627.44;6206026;28;20239;-91
2023/05/17 07:01:39;;;;;;;4.37;3.23;;;;;;;6.52;92.33;97600.00;6220289;28;20735;-91
2023/05/17 07:04:43;;;;;;;4.93;3.10;;;;;;;4.35;91.84;97272.00;6202869;28;20250;-91
2023/05/17 07:07:46;;;;;;;3.50;3.20;;;;;;;4.12;92.85;97252.22;6211987;28;20593;-92
2023/05/17 07:10:52;;;;;;;4.30;3.33;;;;;;;5.65;91.27;97467.66;6221933;28;20232;-90
2023/05/17 07:13:55;;;;;;;5.63;3.83;;;;;;;3.92;92.13;97238.34;6237575;28;20792;-91
2023/05/17 07:16:58;;;;;;;6.40;3.63;;;;;;;4.27;92.26;97285.41;6208120;28;20230;-91
2023/05/17 07:20:00;;;;;;;5.20;4.10;;;;;;;4.22;93.47;97304.50;6230126;28;20258;-91
2023/05/17 07:23:03;;;;;;;7.80;4.60;;;;;;;4.13;93.29;97289.94;6238373;28;20223;-91
2023/05/17 07:26:06;;;;;;;5.03;3.87;;;;;;;5.47;92.33;97483.44;6224144;28;20718;-91
2023/05/17 07:29:08;;;;;;;5.23;4.07;;;;;;;5.46;93.50;97476.53;6229253;28;20242;-91
2023/05/17 07:32:11;;;;;;;5.33;4.30;;;;;;;6.13;94.05;97557.78;6211112;28;20236;-91
2023/05/17 07:35:13;;;;;;;4.87;3.93;;;;;;;4.92;93.55;97389.72;6220204;28;20246;-91
2023/05/17 07:38:16;;;;;;;5.07;3.90;;;;;;;5.64;94.33;97526.81;6205402;28;20231;-91
2023/05/17 07:41:21;;;;;;;4.87;4.07;;;;;;;6.11;94.45;97644.50;6212179;28;20242;-91
2023/05/17 07:44:23;;;;;;;10.77;4.60;;;;;;;6.52;94.49;97647.63;6210037;28;20241;-91
2023/05/17 07:47:26;;;;;;;7.67;4.70;;;;;;;5.80;95.08;97534.22;6211975;28;20239;-91
2023/05/17 07:50:29;;;;;;;4.17;3.77;;;;;;;6.51;94.26;97630.94;6241052;28;20230;-92
2023/05/17 07:53:31;;;;;;;6.20;3.93;;;;;;;6.09;92.88;97548.66;6228373;28;20357;-91
2023/05/17 07:56:33;;;;;;;3.57;3.27;;;;;;;6.87;91.88;97677.06;6230061;28;20239;-91
2023/05/17 07:59:35;;;;;;;5.13;3.63;;;;;;;5.93;93.04;97528.88;6227745;28;20228;-90
2023/05/17 08:02:39;;;;;;;5.87;4.03;;;;;;;7.88;92.70;97816.28;6233594;28;20730;-88
2023/05/17 08:05:42;;;;;;;7.83;3.77;;;;;;;7.10;91.17;97711.69;6212178;28;20228;-88
2023/05/17 08:08:44;;;;;;;6.07;3.67;;;;;;;7.17;92.80;97738.91;6233025;28;20269;-89
2023/05/17 08:11:47;;;;;;;5.80;3.57;;;;;;;6.58;92.67;97679.34;6224036;28;20826;-89
2023/05/17 08:14:50;;;;;;;6.20;3.70;;;;;;;5.63;92.27;97502.22;6245537;28;20254;-88
2023/05/17 08:17:52;;;;;;;5.40;3.97;;;;;;;6.08;93.03;97565.56;6213366;28;20721;-89
2023/05/17 08:20:55;;;;;;;4.23;3.37;;;;;;;7.05;92.67;97737.22;6236000;28;20227;-88
2023/05/17 08:23:57;;;;;;;6.13;3.67;;;;;;;7.38;92.56;97821.66;6224395;28;20231;-91
2023/05/17 08:27:00;;;;;;;5.43;3.60;;;;;;;7.00;92.90;97763.53;6237362;28;20233;-94
2023/05/17 08:30:03;;;;;;;8.57;4.13;;;;;;;7.03;92.15;97786.91;6235765;28;20257;-92
2023/05/17 08:33:12;;;;;;;10.27;3.60;;;;;;;7.37;93.16;97862.47;6230119;28;20244;-90
2023/05/17 08:36:14;;;;;;;3.67;3.20;;;;;;;6.93;91.72;97768.88;6227020;28;20232;-90
2023/05/17 08:39:17;;;;;;;7.03;3.30;;;;;;;6.02;90.25;97626.44;6224005;28;20576;-90
2023/05/17 08:42:25;;;;;;;4.63;2.77;;;;;;;4.03;91.17;97355.47;6244826;28;20214;-91
2023/05/17 08:45:30;;;;;;;3.10;2.77;;;;;;;5.45;90.70;97565.53;6251574;28;20235;-91
2023/05/17 08:48:37;;;;;;;6.53;3.33;;;;;;;5.62;90.66;97589.66;6210357;28;20235;-91
2023/05/17 08:51:41;;;;;;;5.70;3.20;;;;;;;4.74;90.44;97455.63;6213883;28;20641;-90
2023/05/17 08:54:44;;;;;;;5.17;2.90;;;;;;;6.97;91.32;97797.34;6217642;28;20575;-91
2023/05/17 08:57:48;;;;;;;6.13;3.20;;;;;;;7.18;92.18;97811.25;6233884;28;20461;-91
2023/05/17 09:00:53;;;;;;;5.27;2.90;;;;;;;6.69;92.33;97758.03;6234752;28;20593;-89
2023/05/17 09:03:55;;;;;;;3.43;2.90;;;;;;;4.91;91.04;97514.00;6214640;28;20234;-91
2023/05/17 09:06:58;;;;;;;3.90;2.53;;;;;;;5.41;91.10;97599.50;6235993;28;20608;-90
2023/05/17 09:10:04;;;;;;;3.13;2.47;;;;;;;5.56;91.92;97615.06;6210104;28;20232;-91
2023/05/17 09:13:07;;;;;;;8.53;2.87;;;;;;;6.06;92.02;97704.31;6222182;28;20244;-89
2023/05/17 09:16:13;;;;;;;4.57;2.77;;;;;;;3.70;92.88;97324.78;6211372;28;20237;-90
2023/05/17 09:19:16;;;;;;;6.30;3.10;;;;;;;7.19;93.56;97873.78;6233450;28;20227;-90
2023/05/17 09:22:19;;;;;;;5.33;2.70;;;;;;;5.52;92.83;97607.81;6225610;28;20235;-90
2023/05/17 09:25:23;;;;;;;8.27;3.07;;;;;;;7.04;92.25;97871.44;6216070;28;20644;-91
2023/05/17 09:28:28;;;;;;;4.17;2.90;;;;;;;6.80;91.42;97827.22;6224631;28;20240;-91
2023/05/17 09:31:32;;;;;;;5.10;2.70;;;;;;;4.98;91.22;97556.25;6227485;28;20592;-91
2023/05/17 09:34:39;;;;;;;5.80;2.77;;;;;;;7.27;93.48;97901.88;6227807;28;20300;-90
2023/05/17 09:37:43;;;;;;;4.63;2.40;;;;;;;5.72;89.90;97610.34;6207177;28;20227;-90
2023/05/17 09:40:48;;;;;;;6.50;2.87;;;;;;;3.83;89.75;97360.81;6238708;28;20235;-91
2023/05/17 09:43:50;;;;;;;6.53;3.00;;;;;;;5.32;91.94;97610.50;6235990;28;20237;-90
2023/05/17 09:46:56;;;;;;;8.13;2.77;;;;;;;6.21;92.86;97770.97;6230844;28;20235;-91
2023/05/17 09:50:02;;;;;;;4.60;2.67;;;;;;;6.95;91.01;97856.88;6229165;28;20234;-90
2023/05/17 09:53:28;;;;;;;8.77;2.40;;;;;;;5.28;89.74;97633.91;6228665;28;20245;-90
2023/05/17 09:56:32;;;;;;;4.50;2.00;;;;;;;4.55;90.95;97511.91;6227525;28;20329;-90
2023/05/17 09:59:37;;;;;;;9.60;2.53;;;;;;;5.07;91.28;97566.31;6227300;28;20280;-91
2023/05/17 10:02:43;;;;;;;2.33;2.03;;;;;;;5.31;90.69;97596.50;6211947;28;20242;-91
2023/05/17 10:05:48;;;;;;;4.13;2.07;;;;;;;4.24;89.37;97397.41;6242257;28;20311;-90
2023/05/17 10:08:55;;;;;;;5.03;2.13;;;;;;;4.61;90.41;97519.78;6229630;28;20266;-91
2023/05/17 10:11:58;;;;;;;2.70;2.00;;;;;;;5.81;90.12;97701.56;6223176;28;20240;-91
2023/05/17 10:15:02;;;;;;;3.00;2.10;;;;;;;4.66;90.32;97488.31;6223724;28;20277;-90
2023/05/17 10:18:07;;;;;;;2.50;2.17;;;;;;;7.23;90.33;97897.00;6218495;28;20207;-90
2023/05/17 10:21:11;;;;;;;3.93;2.07;;;;;;;5.97;89.53;97729.41;6216604;28;20413;-90
2023/05/17 10:24:15;;;;;;;2.07;1.70;;;;;;;4.71;89.68;97534.38;6234029;28;20305;-91
2023/05/17 10:27:20;;;;;;;3.83;1.83;;;;;;;6.23;87.89;97700.16;6216860;28;20801;-91
2023/05/17 10:30:25;;;;;;;2.20;1.60;;;;;;;6.12;88.19;97722.00;6236809;28;20231;-91
2023/05/17 10:33:28;;;;;;;3.00;1.73;;;;;;;6.17;87.22;97719.53;6233222;28;20733;-91
2023/05/17 10:36:32;;;;;;;3.23;1.87;;;;;;;4.13;88.04;97379.56;6234233;28;20267;-91
2023/05/17 10:39:37;;;;;;;2.80;1.93;;;;;;;6.36;86.67;97721.22;6219990;28;20247;-91
2023/05/17 10:42:43;;;;;;;2.17;1.63;;;;;;;7.58;88.78;97962.81;6237369;28;20244;-91
2023/05/17 10:45:46;;;;;;;2.80;1.57;;;;;;;7.60;87.70;97947.50;6224762;28;20269;-91
2023/05/17 10:48:53;;;;;;;3.73;1.87;;;;;;;6.83;89.69;97838.19;6222730;28;20242;-90
2023/05/17 10:52:22;;;;;;;3.77;1.90;;;;;;;5.10;88.82;97579.13;6224086;28;20244;-91
2023/05/17 10:55:38;;;;;;;5.20;1.97;;;;;;;6.45;91.03;97796.69;6206725;28;20241;-91
2023/05/17 10:58:43;;;;;;;2.67;2.00;;;;;;;5.67;89.61;97664.63;6203228;28;20232;-90
2023/05/17 11:02:02;;;;;;;2.90;1.97;;;;;;;7.57;89.05;97941.81;6197754;28;20224;-91
2023/05/17 11:05:06;;;;;;;3.37;2.13;;;;;;;7.70;87.30;97954.97;6225650;28;20234;-91
2023/05/17 11:08:15;;;;;;;5.23;1.93;;;;;;;6.36;87.55;97776.78;6230630;28;20731;-91
2023/05/17 11:11:19;;;;;;;3.80;2.40;;;;;;;4.05;87.66;97406.16;6212317;28;20234;-91
2023/05/17 11:14:21;;;;;;;2.70;2.30;;;;;;;6.16;89.06;97747.81;6230944;28;20222;-91
2023/05/17 11:17:35;;;;;;;6.40;2.80;;;;;;;5.61;89.86;97680.50;6213889;28;20380;-91
2023/05/17 11:20:38;;;;;;;5.00;2.40;;;;;;;5.15;88.23;97591.69;6224196;28;20224;-91
2023/05/17 11:23:43;;;;;;;3.40;2.87;;;;;;;6.62;88.00;97820.81;6222878;28;20304;-91
2023/05/17 11:26:48;;;;;;;4.53;2.30;;;;;;;6.96;87.85;97891.09;6239960;28;20721;-92
2023/05/17 11:29:55;;;;;;;4.47;2.53;;;;;;;5.59;86.46;97629.72;6219353;28;20322;-91
2023/05/17 11:33:00;;;;;;;10.33;2.90;;;;;;;5.85;88.25;97708.06;6200535;28;20248;-91
2023/05/17 11:36:06;;;;;;;5.60;2.80;;;;;;;5.53;88.62;97671.00;6196537;28;20286;-92
2023/05/17 11:39:10;;;;;;;4.27;2.60;;;;;;;5.85;88.25;97727.38;6218680;28;20207;-91
2023/05/17 11:42:24;;;;;;;6.20;2.87;;;;;;;4.06;88.55;97426.22;6206181;28;20285;-92
2023/05/17 11:45:27;;;;;;;5.57;2.70;;;;;;;3.78;88.69;97405.41;6233076;28;20652;-91
2023/05/17 11:48:30;;;;;;;8.00;3.00;;;;;;;4.78;88.71;97570.31;6229981;28;20366;-91
2023/05/17 11:51:33;;;;;;;4.40;2.93;;;;;;;4.85;88.20;97555.25;6234225;28;20223;-91
2023/05/17 11:54:39;;;;;;;4.90;2.60;;;;;;;7.24;88.83;97926.94;6235209;28;20238;-91
2023/05/17 11:57:42;;;;;;;5.57;2.90;;;;;;;7.24;89.24;97925.16;6221010;28;20241;-91
2023/05/17 12:00:51;;;;;;;5.63;2.77;;;;;;;4.90;88.69;97560.72;6208455;28;20244;-90
2023/05/17 12:03:59;;;;;;;4.67;2.70;;;;;;;5.82;89.43;97727.00;6213381;28;20231;-91
2023/05/17 12:07:02;;;;;;;6.97;2.50;;;;;;;5.39;87.06;97635.88;6226277;28;20230;-92
2023/05/17 12:10:12;;;;;;;5.17;3.07;;;;;;;4.49;89.59;97499.56;6247993;28;20266;-92
2023/05/17 12:13:15;;;;;;;3.90;2.33;;;;;;;5.29;89.14;97675.16;6208256;28;20325;-91
2023/05/17 12:16:21;;;;;;;4.63;2.67;;;;;;;6.43;90.58;97864.88;6192065;28;20236;-91
2023/05/17 12:19:28;;;;;;;5.70;2.13;;;;;;;6.87;87.23;97902.94;6227847;28;20329;-91
2023/05/17 12:22:31;;;;;;;4.17;2.63;;;;;;;7.42;88.83;97997.78;6231940;28;20238;-92
2023/05/17 12:25:34;;;;;;;3.30;2.33;;;;;;;5.53;89.50;97693.97;6217715;28;20280;-92
2023/05/17 12:28:39;;;;;;;5.23;2.50;;;;;;;7.12;90.32;97950.69;6210044;28;20236;-92
2023/05/17 12:31:50;;;;;;;3.97;2.47;;;;;;;4.04;89.28;97463.34;6226311;28;20304;-92
2023/05/17 12:34:54;;;;;;;3.43;2.20;;;;;;;6.95;89.42;97897.41;6207253;28;20234;-91
2023/05/17 12:37:56;;;;;;;3.13;2.57;;;;;;;5.74;88.43;97741.25;6204692;28;20303;-90
2023/05/17 12:41:04;;;;;;;4.20;2.77;;;;;;;4.17;88.34;97483.59;6237572;28;20234;-92
2023/05/17 12:44:08;;;;;;;3.70;2.30;;;;;;;4.25;87.48;97528.19;6206721;28;20234;-92
2023/05/17 12:47:14;;;;;;;3.63;2.43;;;;;;;5.57;88.63;97721.59;6227274;28;20233;-91
2023/05/17 12:50:29;;;;;;;3.87;2.40;;;;;;;5.80;90.75;97748.31;6208699;28;20232;-92
2023/05/17 12:53:58;;;;;;;3.93;2.40;;;;;;;7.58;89.32;98052.94;6230355;28;20318;-91
2023/05/17 12:57:12;;;;;;;4.50;2.10;;;;;;;6.88;87.94;97896.63;6216615;28;20370;-92
2023/05/17 13:00:16;;;;;;;3.83;2.40;;;;;;;6.15;89.30;97819.41;6229468;28;20860;-91
2023/05/17 13:03:22;;;;;;;6.67;2.93;;;;;;;4.97;88.69;97623.22;6236666;28;20894;-92
2023/05/17 13:06:25;;;;;;;4.83;2.17;;;;;;;6.87;90.08;97963.84;6229794;28;20234;-91
2023/05/17 13:09:29;;;;;;;3.33;2.60;;;;;;;6.33;91.62;97883.03;6220697;28;20238;-92
2023/05/17 13:12:37;;;;;;;6.40;3.10;;;;;;;5.70;92.25;97777.03;6224063;28;20307;-91
2023/05/17 13:15:40;;;;;;;5.40;2.63;;;;;;;5.13;90.83;97718.66;6218578;28;20238;-91
2023/05/17 13:18:50;;;;;;;6.00;2.80;;;;;;;6.88;91.22;97936.34;6214025;28;20226;-93
2023/05/17 13:21:53;;;;;;;5.23;2.53;;;;;;;5.85;90.22;97774.94;6213787;28;20246;-93
2023/05/17 13:24:56;;;;;;;5.50;3.03;;;;;;;5.31;90.58;97748.88;6228211;28;20318;-91
2023/05/17 13:27:59;;;;;;;4.77;2.53;;;;;;;4.75;88.80;97633.22;6218085;28;20355;-90
2023/05/17 13:31:01;;;;;;;6.53;2.40;;;;;;;7.50;89.71;98061.97;6222418;28;20237;-91
2023/05/17 13:34:04;;;;;;;5.63;2.83;;;;;;;7.12;89.13;97986.97;6230909;28;20246;-92
2023/05/17 13:37:07;;;;;;;4.43;3.10;;;;;;;6.00;89.55;97817.03;6235733;28;20235;-90
2023/05/17 13:40:14;;;;;;;5.07;3.07;;;;;;;7.16;90.84;98001.41;6205245;28;20242;-90
2023/05/17 13:43:17;;;;;;;4.87;3.00;;;;;;;6.07;89.09;97822.31;6231350;28;20231;-90
2023/05/17 13:46:19;;;;;;;7.33;2.97;;;;;;;4.77;88.41;97604.81;6233743;28;20250;-90
2023/05/17 13:49:22;;;;;;;6.30;2.87;;;;;;;4.21;87.31;97494.53;6206208;28;20233;-91
2023/05/17 13:52:26;;;;;;;6.87;3.03;;;;;;;4.38;87.38;97544.00;6228274;28;20240;-92
2023/05/17 13:55:28;;;;;;;4.43;3.03;;;;;;;6.01;89.02;97804.63;6209621;28;20242;-92
2023/05/17 13:58:31;;;;;;;11.87;3.40;;;;;;;5.19;89.68;97701.19;6233428;28;20229;-91
2023/05/17 14:01:34;;;;;;;5.83;3.00;;;;;;;4.11;89.20;97526.59;6202852;28;20231;-91
2023/05/17 14:04:36;;;;;;;3.77;2.90;;;;;;;5.30;89.78;97734.88;6214613;28;20237;-91
2023/05/17 14:07:41;;;;;;;5.77;3.13;;;;;;;5.87;90.12;97875.22;6208113;28;20413;-91
2023/05/17 14:10:45;;;;;;;5.47;3.20;;;;;;;5.48;91.74;97770.41;6226869;28;20741;-91
2023/05/17 14:13:48;;;;;;;8.20;3.47;;;;;;;6.98;91.31;98041.81;6212598;28;20245;-92
2023/05/17 14:16:50;;;;;;;5.63;3.20;;;;;;;4.50;90.31;97611.97;6239483;28;20253;-93
2023/05/17 14:19:53;;;;;;;5.40;3.40;;;;;;;5.32;91.32;97780.38;6216617;28;20231;-93
2023/05/17 14:22:57;;;;;;;4.50;3.33;;;;;;;6.08;90.30;97880.28;6237902;28;20231;-93
2023/05/17 14:26:01;;;;;;;8.07;3.60;;;;;;;7.49;90.91;98113.38;6236835;28;20242;-91
2023/05/17 14:29:08;;;;;;;7.13;3.73;;;;;;;7.60;89.39;98095.16;6228076;28;20239;-92
2023/05/17 14:32:11;;;;;;;5.80;3.40;;;;;;;4.96;89.12;97669.13;6224098;28;20297;-91
2023/05/17 14:35:16;;;;;;;7.20;3.63;;;;;;;6.79;90.69;97997.69;6211021;28;20267;-92
2023/05/17 14:38:20;;;;;;;7.13;3.33;;;;;;;5.36;91.45;97768.38;6211692;28;20592;-91